Adrian, Texas
Current Conditions -  °F | °C
As of 2:55 AM on Thursday 23 Oct 2014 (Local Time) from KHRX Reporting Station
Overcast Overcast  
Wind Chill: 63°   Ceiling: 1200
Heat Index: 63°   Visibility: 10mi
Dew Point: 60°   Wind: 10mph
Humidity: 91%   Direction: 170°S
Pressure: 30.13"   Gusts: NA
Location:  35.27°N, 102.67°W
Report Text: KHRX 230755Z AUTO 17009KT 10SM OVC012 17/16 A3013 RMK AO2 T01700155
Loading
Personal Weather Stations






























Interactive Weather Map
Tropical Storm Tracking
New forecast layout! Learn more

10-Day Weather Forecast

Advertisements
Track Severe Weather on mobile